sensor_id;sensor_type;location;lat;lon;timestamp;temperature;humidity
15143;DHT22;7672;50.834;6.286;2023-07-31T00:00:16;19.20;99.90
15143;DHT22;7672;50.834;6.286;2023-07-31T00:02:43;19.20;99.90
15143;DHT22;7672;50.834;6.286;2023-07-31T00:05:10;19.20;99.90
15143;DHT22;7672;50.834;6.286;2023-07-31T00:07:37;19.20;99.90
15143;DHT22;7672;50.834;6.286;2023-07-31T00:10:04;19.20;99.90
15143;DHT22;7672;50.834;6.286;2023-07-31T00:12:31;19.20;99.90
15143;DHT22;7672;50.834;6.286;2023-07-31T00:14:59;19.30;99.90
15143;DHT22;7672;50.834;6.286;2023-07-31T00:17:26;19.10;99.90
15143;DHT22;7672;50.834;6.286;2023-07-31T00:19:53;19.10;99.90
15143;DHT22;7672;50.834;6.286;2023-07-31T00:22:20;19.10;99.90
15143;DHT22;7672;50.834;6.286;2023-07-31T00:24:47;19.10;99.90
15143;DHT22;7672;50.834;6.286;2023-07-31T00:27:14;19.10;99.90
15143;DHT22;7672;50.834;6.286;2023-07-31T00:29:43;19.30;99.90
15143;DHT22;7672;50.834;6.286;2023-07-31T00:32:10;19.10;99.90
15143;DHT22;7672;50.834;6.286;2023-07-31T00:34:37;19.10;99.90
15143;DHT22;7672;50.834;6.286;2023-07-31T00:37:04;19.20;99.90
15143;DHT22;7672;50.834;6.286;2023-07-31T00:39:34;19.10;99.90
15143;DHT22;7672;50.834;6.286;2023-07-31T00:42:01;19.10;99.90
15143;DHT22;7672;50.834;6.286;2023-07-31T00:44:29;19.10;99.90
15143;DHT22;7672;50.834;6.286;2023-07-31T00:46:56;19.10;99.90
15143;DHT22;7672;50.834;6.286;2023-07-31T00:49:26;19.10;99.90
15143;DHT22;7672;50.834;6.286;2023-07-31T00:51:55;19.30;99.90
15143;DHT22;7672;50.834;6.286;2023-07-31T00:54:25;19.10;99.90
15143;DHT22;7672;50.834;6.286;2023-07-31T00:56:53;19.00;99.90
15143;DHT22;7672;50.834;6.286;2023-07-31T00:59:21;19.10;99.90
15143;DHT22;7672;50.834;6.286;2023-07-31T01:01:48;19.10;99.90
15143;DHT22;7672;50.834;6.286;2023-07-31T01:04:17;19.10;99.90
15143;DHT22;7672;50.834;6.286;2023-07-31T01:12:28;19.00;99.90
15143;DHT22;7672;50.834;6.286;2023-07-31T01:15:03;19.00;99.90
15143;DHT22;7672;50.834;6.286;2023-07-31T01:17:33;19.00;99.90
15143;DHT22;7672;50.834;6.286;2023-07-31T01:20:04;19.00;99.90
15143;DHT22;7672;50.834;6.286;2023-07-31T01:31:31;19.10;99.90
15143;DHT22;7672;50.834;6.286;2023-07-31T01:34:01;19.10;99.90
15143;DHT22;7672;50.834;6.286;2023-07-31T01:36:30;19.10;99.90
15143;DHT22;7672;50.834;6.286;2023-07-31T01:38:59;19.20;99.90
15143;DHT22;7672;50.834;6.286;2023-07-31T01:41:27;19.20;99.90
15143;DHT22;7672;50.834;6.286;2023-07-31T01:43:54;19.60;99.90
15143;DHT22;7672;50.834;6.286;2023-07-31T01:46:23;19.20;99.90
15143;DHT22;7672;50.834;6.286;2023-07-31T01:48:50;19.20;99.90
15143;DHT22;7672;50.834;6.286;2023-07-31T01:51:18;19.20;99.90
15143;DHT22;7672;50.834;6.286;2023-07-31T01:53:45;19.10;99.90
15143;DHT22;7672;50.834;6.286;2023-07-31T01:56:12;19.40;99.90
15143;DHT22;7672;50.834;6.286;2023-07-31T01:58:39;19.20;99.90
15143;DHT22;7672;50.834;6.286;2023-07-31T02:01:06;19.30;99.90
15143;DHT22;7672;50.834;6.286;2023-07-31T02:03:33;19.30;99.90
15143;DHT22;7672;50.834;6.286;2023-07-31T02:06:01;19.30;99.90
15143;DHT22;7672;50.834;6.286;2023-07-31T02:08:28;19.30;99.90
15143;DHT22;7672;50.834;6.286;2023-07-31T02:10:55;19.40;99.90
15143;DHT22;7672;50.834;6.286;2023-07-31T02:13:22;19.60;99.90
15143;DHT22;7672;50.834;6.286;2023-07-31T02:15:49;19.40;99.90
15143;DHT22;7672;50.834;6.286;2023-07-31T02:18:17;19.30;99.90
15143;DHT22;7672;50.834;6.286;2023-07-31T02:20:49;19.40;99.90
15143;DHT22;7672;50.834;6.286;2023-07-31T02:23:18;19.40;99.90
15143;DHT22;7672;50.834;6.286;2023-07-31T02:25:46;19.40;99.90
15143;DHT22;7672;50.834;6.286;2023-07-31T02:28:14;19.50;99.90
15143;DHT22;7672;50.834;6.286;2023-07-31T02:30:44;19.40;99.90
15143;DHT22;7672;50.834;6.286;2023-07-31T02:33:13;19.50;99.90
15143;DHT22;7672;50.834;6.286;2023-07-31T02:35:41;19.50;99.90
15143;DHT22;7672;50.834;6.286;2023-07-31T02:38:08;19.40;99.90
15143;DHT22;7672;50.834;6.286;2023-07-31T02:40:35;19.50;99.90
15143;DHT22;7672;50.834;6.286;2023-07-31T02:43:02;19.40;99.90
15143;DHT22;7672;50.834;6.286;2023-07-31T02:45:29;19.70;99.90
15143;DHT22;7672;50.834;6.286;2023-07-31T02:47:57;19.50;99.90
15143;DHT22;7672;50.834;6.286;2023-07-31T02:50:24;19.80;99.90
15143;DHT22;7672;50.834;6.286;2023-07-31T02:52:51;19.40;99.90
15143;DHT22;7672;50.834;6.286;2023-07-31T02:55:18;19.60;99.90
15143;DHT22;7672;50.834;6.286;2023-07-31T02:57:45;19.90;99.90
15143;DHT22;7672;50.834;6.286;2023-07-31T03:00:12;19.60;99.90
15143;DHT22;7672;50.834;6.286;2023-07-31T03:02:39;19.60;99.90
15143;DHT22;7672;50.834;6.286;2023-07-31T03:05:07;19.60;99.90
15143;DHT22;7672;50.834;6.286;2023-07-31T03:07:34;19.60;99.90
15143;DHT22;7672;50.834;6.286;2023-07-31T03:10:01;19.60;99.90
15143;DHT22;7672;50.834;6.286;2023-07-31T03:12:28;19.60;99.90
15143;DHT22;7672;50.834;6.286;2023-07-31T03:14:56;19.70;99.90
15143;DHT22;7672;50.834;6.286;2023-07-31T03:17:23;19.70;99.90
15143;DHT22;7672;50.834;6.286;2023-07-31T03:19:50;19.70;99.90
15143;DHT22;7672;50.834;6.286;2023-07-31T03:22:17;19.70;99.90
15143;DHT22;7672;50.834;6.286;2023-07-31T03:24:44;19.60;99.90
15143;DHT22;7672;50.834;6.286;2023-07-31T03:27:11;19.70;99.90
15143;DHT22;7672;50.834;6.286;2023-07-31T03:29:38;19.70;99.90
15143;DHT22;7672;50.834;6.286;2023-07-31T03:32:05;20.00;99.90
15143;DHT22;7672;50.834;6.286;2023-07-31T03:34:33;19.70;99.90
15143;DHT22;7672;50.834;6.286;2023-07-31T03:37:01;20.10;99.90
15143;DHT22;7672;50.834;6.286;2023-07-31T03:39:30;19.70;99.90
15143;DHT22;7672;50.834;6.286;2023-07-31T03:41:57;19.70;99.90
15143;DHT22;7672;50.834;6.286;2023-07-31T03:44:24;20.10;99.90
15143;DHT22;7672;50.834;6.286;2023-07-31T03:46:51;19.80;99.90
15143;DHT22;7672;50.834;6.286;2023-07-31T03:49:19;19.80;99.90
15143;DHT22;7672;50.834;6.286;2023-07-31T03:51:46;19.70;99.90
15143;DHT22;7672;50.834;6.286;2023-07-31T03:54:13;19.70;99.90
15143;DHT22;7672;50.834;6.286;2023-07-31T03:56:40;19.70;99.90
15143;DHT22;7672;50.834;6.286;2023-07-31T03:59:08;19.80;99.90
15143;DHT22;7672;50.834;6.286;2023-07-31T04:01:35;19.70;99.90
15143;DHT22;7672;50.834;6.286;2023-07-31T04:04:03;19.80;99.90
15143;DHT22;7672;50.834;6.286;2023-07-31T04:06:30;19.80;99.90
15143;DHT22;7672;50.834;6.286;2023-07-31T04:08:57;19.80;99.90
15143;DHT22;7672;50.834;6.286;2023-07-31T04:11:24;19.80;99.90
15143;DHT22;7672;50.834;6.286;2023-07-31T04:13:51;19.80;99.90
15143;DHT22;7672;50.834;6.286;2023-07-31T04:16:18;19.80;99.90
15143;DHT22;7672;50.834;6.286;2023-07-31T04:18:45;19.80;99.90
15143;DHT22;7672;50.834;6.286;2023-07-31T04:21:12;19.80;99.90
15143;DHT22;7672;50.834;6.286;2023-07-31T04:23:39;19.80;99.90
15143;DHT22;7672;50.834;6.286;2023-07-31T04:26:06;19.80;99.90
15143;DHT22;7672;50.834;6.286;2023-07-31T04:28:33;19.70;99.90
15143;DHT22;7672;50.834;6.286;2023-07-31T04:31:01;19.90;99.90
15143;DHT22;7672;50.834;6.286;2023-07-31T04:33:28;19.90;99.90
15143;DHT22;7672;50.834;6.286;2023-07-31T04:35:55;19.80;99.90
15143;DHT22;7672;50.834;6.286;2023-07-31T04:38:22;19.90;99.90
15143;DHT22;7672;50.834;6.286;2023-07-31T04:40:49;19.90;99.90
15143;DHT22;7672;50.834;6.286;2023-07-31T04:43:17;19.90;99.90
15143;DHT22;7672;50.834;6.286;2023-07-31T04:45:47;19.90;99.90
15143;DHT22;7672;50.834;6.286;2023-07-31T04:48:15;19.80;99.90
15143;DHT22;7672;50.834;6.286;2023-07-31T04:50:42;19.90;99.90
15143;DHT22;7672;50.834;6.286;2023-07-31T04:53:09;20.20;99.90
15143;DHT22;7672;50.834;6.286;2023-07-31T04:55:36;19.80;99.90
15143;DHT22;7672;50.834;6.286;2023-07-31T04:58:03;19.90;99.90
15143;DHT22;7672;50.834;6.286;2023-07-31T05:00:30;19.90;99.90
15143;DHT22;7672;50.834;6.286;2023-07-31T05:02:57;20.00;99.90
15143;DHT22;7672;50.834;6.286;2023-07-31T05:05:24;20.00;99.90
15143;DHT22;7672;50.834;6.286;2023-07-31T05:07:51;20.00;99.90
15143;DHT22;7672;50.834;6.286;2023-07-31T05:10:18;20.00;99.90
15143;DHT22;7672;50.834;6.286;2023-07-31T05:12:45;20.20;99.90
15143;DHT22;7672;50.834;6.286;2023-07-31T05:15:13;20.10;99.90
15143;DHT22;7672;50.834;6.286;2023-07-31T05:17:42;20.10;99.90
15143;DHT22;7672;50.834;6.286;2023-07-31T05:20:09;20.10;99.90
15143;DHT22;7672;50.834;6.286;2023-07-31T05:22:40;20.20;99.90
15143;DHT22;7672;50.834;6.286;2023-07-31T05:25:07;20.10;99.90
15143;DHT22;7672;50.834;6.286;2023-07-31T05:27:34;20.20;99.90
15143;DHT22;7672;50.834;6.286;2023-07-31T05:30:02;20.40;99.90
15143;DHT22;7672;50.834;6.286;2023-07-31T05:32:30;20.30;99.90
15143;DHT22;7672;50.834;6.286;2023-07-31T05:34:58;20.30;99.90
15143;DHT22;7672;50.834;6.286;2023-07-31T05:37:25;20.20;99.90
15143;DHT22;7672;50.834;6.286;2023-07-31T05:39:52;20.20;99.90
15143;DHT22;7672;50.834;6.286;2023-07-31T05:42:19;20.20;99.90
15143;DHT22;7672;50.834;6.286;2023-07-31T05:44:46;20.20;99.90
15143;DHT22;7672;50.834;6.286;2023-07-31T05:47:13;20.20;99.90
15143;DHT22;7672;50.834;6.286;2023-07-31T05:49:41;20.20;99.90
15143;DHT22;7672;50.834;6.286;2023-07-31T05:52:08;20.10;99.90
15143;DHT22;7672;50.834;6.286;2023-07-31T05:54:35;20.10;99.90
15143;DHT22;7672;50.834;6.286;2023-07-31T05:57:02;20.10;99.90
15143;DHT22;7672;50.834;6.286;2023-07-31T05:59:29;20.10;99.90
15143;DHT22;7672;50.834;6.286;2023-07-31T06:01:59;20.00;99.90
15143;DHT22;7672;50.834;6.286;2023-07-31T06:04:26;20.00;99.90
15143;DHT22;7672;50.834;6.286;2023-07-31T06:06:54;19.90;99.90
15143;DHT22;7672;50.834;6.286;2023-07-31T06:09:20;20.10;99.90
15143;DHT22;7672;50.834;6.286;2023-07-31T06:11:48;19.80;99.90
15143;DHT22;7672;50.834;6.286;2023-07-31T06:14:15;19.90;99.90
15143;DHT22;7672;50.834;6.286;2023-07-31T06:16:43;20.00;99.90
15143;DHT22;7672;50.834;6.286;2023-07-31T06:19:11;19.90;99.90
15143;DHT22;7672;50.834;6.286;2023-07-31T06:21:38;19.90;99.90
15143;DHT22;7672;50.834;6.286;2023-07-31T06:24:05;20.00;99.90
15143;DHT22;7672;50.834;6.286;2023-07-31T06:26:32;20.00;99.90
15143;DHT22;7672;50.834;6.286;2023-07-31T06:28:59;20.10;99.90
15143;DHT22;7672;50.834;6.286;2023-07-31T06:31:26;20.10;99.90
15143;DHT22;7672;50.834;6.286;2023-07-31T06:33:54;20.20;99.90
15143;DHT22;7672;50.834;6.286;2023-07-31T06:36:21;20.50;99.90
15143;DHT22;7672;50.834;6.286;2023-07-31T06:38:48;20.40;99.90
15143;DHT22;7672;50.834;6.286;2023-07-31T06:41:15;20.50;99.90
15143;DHT22;7672;50.834;6.286;2023-07-31T06:43:42;20.60;99.90
15143;DHT22;7672;50.834;6.286;2023-07-31T06:46:09;20.70;99.90
15143;DHT22;7672;50.834;6.286;2023-07-31T06:48:37;20.80;99.90
15143;DHT22;7672;50.834;6.286;2023-07-31T06:51:04;20.90;99.90
15143;DHT22;7672;50.834;6.286;2023-07-31T06:53:31;21.00;99.90
15143;DHT22;7672;50.834;6.286;2023-07-31T06:55:58;21.00;99.90
15143;DHT22;7672;50.834;6.286;2023-07-31T06:58:25;21.10;99.90
15143;DHT22;7672;50.834;6.286;2023-07-31T07:00:52;21.10;99.90
15143;DHT22;7672;50.834;6.286;2023-07-31T07:03:19;21.10;99.90
15143;DHT22;7672;50.834;6.286;2023-07-31T07:05:47;21.10;99.90
15143;DHT22;7672;50.834;6.286;2023-07-31T07:08:14;21.20;99.90
15143;DHT22;7672;50.834;6.286;2023-07-31T07:10:41;21.50;99.90
15143;DHT22;7672;50.834;6.286;2023-07-31T07:13:08;21.20;99.90
15143;DHT22;7672;50.834;6.286;2023-07-31T07:15:36;21.20;99.90
15143;DHT22;7672;50.834;6.286;2023-07-31T07:18:03;21.20;99.90
15143;DHT22;7672;50.834;6.286;2023-07-31T07:20:30;21.20;99.90
15143;DHT22;7672;50.834;6.286;2023-07-31T07:22:57;21.20;99.90
15143;DHT22;7672;50.834;6.286;2023-07-31T07:25:24;21.10;99.90
15143;DHT22;7672;50.834;6.286;2023-07-31T07:27:51;21.10;99.90
15143;DHT22;7672;50.834;6.286;2023-07-31T07:30:18;21.10;99.90
15143;DHT22;7672;50.834;6.286;2023-07-31T07:32:46;21.00;99.90
15143;DHT22;7672;50.834;6.286;2023-07-31T07:35:13;21.00;99.90
15143;DHT22;7672;50.834;6.286;2023-07-31T07:37:40;20.90;99.90
15143;DHT22;7672;50.834;6.286;2023-07-31T07:40:08;20.90;99.90
15143;DHT22;7672;50.834;6.286;2023-07-31T07:42:36;20.90;99.90
15143;DHT22;7672;50.834;6.286;2023-07-31T07:45:03;20.90;99.90
15143;DHT22;7672;50.834;6.286;2023-07-31T07:47:31;20.90;99.90
15143;DHT22;7672;50.834;6.286;2023-07-31T07:49:58;21.00;99.90
15143;DHT22;7672;50.834;6.286;2023-07-31T07:52:25;21.10;99.90
15143;DHT22;7672;50.834;6.286;2023-07-31T07:54:52;21.10;99.90
15143;DHT22;7672;50.834;6.286;2023-07-31T07:57:19;21.30;99.90
15143;DHT22;7672;50.834;6.286;2023-07-31T07:59:46;21.10;99.90
15143;DHT22;7672;50.834;6.286;2023-07-31T08:02:13;21.20;99.90
15143;DHT22;7672;50.834;6.286;2023-07-31T08:04:40;21.20;99.90
15143;DHT22;7672;50.834;6.286;2023-07-31T08:07:07;21.40;99.90
15143;DHT22;7672;50.834;6.286;2023-07-31T08:09:34;21.40;99.90
15143;DHT22;7672;50.834;6.286;2023-07-31T08:12:01;21.50;99.90
15143;DHT22;7672;50.834;6.286;2023-07-31T08:14:30;21.60;99.90
15143;DHT22;7672;50.834;6.286;2023-07-31T08:16:59;21.60;99.90
15143;DHT22;7672;50.834;6.286;2023-07-31T08:19:27;21.90;99.90
15143;DHT22;7672;50.834;6.286;2023-07-31T08:21:54;22.10;99.90
15143;DHT22;7672;50.834;6.286;2023-07-31T08:24:24;22.30;99.90
15143;DHT22;7672;50.834;6.286;2023-07-31T08:26:51;22.60;99.90
15143;DHT22;7672;50.834;6.286;2023-07-31T08:29:18;22.80;99.90
15143;DHT22;7672;50.834;6.286;2023-07-31T08:31:45;23.00;99.90
15143;DHT22;7672;50.834;6.286;2023-07-31T08:34:12;23.30;99.90
15143;DHT22;7672;50.834;6.286;2023-07-31T08:36:39;23.40;99.90
15143;DHT22;7672;50.834;6.286;2023-07-31T08:39:07;23.50;99.90
15143;DHT22;7672;50.834;6.286;2023-07-31T08:41:38;23.60;99.90
15143;DHT22;7672;50.834;6.286;2023-07-31T08:44:07;23.50;99.90
15143;DHT22;7672;50.834;6.286;2023-07-31T08:46:35;23.50;99.90
15143;DHT22;7672;50.834;6.286;2023-07-31T08:49:04;23.50;99.90
15143;DHT22;7672;50.834;6.286;2023-07-31T08:51:35;23.50;99.90
15143;DHT22;7672;50.834;6.286;2023-07-31T08:54:03;23.40;99.90
15143;DHT22;7672;50.834;6.286;2023-07-31T08:56:33;23.40;99.90
15143;DHT22;7672;50.834;6.286;2023-07-31T08:59:04;23.30;99.90
15143;DHT22;7672;50.834;6.286;2023-07-31T09:01:35;23.30;99.90
15143;DHT22;7672;50.834;6.286;2023-07-31T09:04:07;23.30;99.90
15143;DHT22;7672;50.834;6.286;2023-07-31T09:06:37;23.30;99.90
15143;DHT22;7672;50.834;6.286;2023-07-31T09:09:06;23.30;99.90
15143;DHT22;7672;50.834;6.286;2023-07-31T09:11:33;23.30;99.90
15143;DHT22;7672;50.834;6.286;2023-07-31T09:14:00;23.40;99.90
15143;DHT22;7672;50.834;6.286;2023-07-31T09:16:35;23.50;99.90
15143;DHT22;7672;50.834;6.286;2023-07-31T09:19:02;23.50;99.90
15143;DHT22;7672;50.834;6.286;2023-07-31T09:21:30;23.50;99.90
15143;DHT22;7672;50.834;6.286;2023-07-31T09:23:57;23.60;99.90
15143;DHT22;7672;50.834;6.286;2023-07-31T09:26:35;23.70;99.90
15143;DHT22;7672;50.834;6.286;2023-07-31T09:29:05;23.80;99.90
15143;DHT22;7672;50.834;6.286;2023-07-31T09:31:42;24.00;99.90
15143;DHT22;7672;50.834;6.286;2023-07-31T09:34:10;24.20;99.90
15143;DHT22;7672;50.834;6.286;2023-07-31T09:39:17;24.60;99.90
15143;DHT22;7672;50.834;6.286;2023-07-31T09:41:54;24.70;99.90
15143;DHT22;7672;50.834;6.286;2023-07-31T09:44:40;24.80;99.90
15143;DHT22;7672;50.834;6.286;2023-07-31T09:47:24;24.80;99.90
15143;DHT22;7672;50.834;6.286;2023-07-31T09:49:52;25.00;99.90
15143;DHT22;7672;50.834;6.286;2023-07-31T09:52:19;25.00;99.90
15143;DHT22;7672;50.834;6.286;2023-07-31T09:54:46;25.00;99.90
15143;DHT22;7672;50.834;6.286;2023-07-31T09:57:15;25.00;99.90
15143;DHT22;7672;50.834;6.286;2023-07-31T09:59:45;25.00;99.90
15143;DHT22;7672;50.834;6.286;2023-07-31T10:02:18;25.00;99.90
15143;DHT22;7672;50.834;6.286;2023-07-31T10:04:51;25.20;99.90
15143;DHT22;7672;50.834;6.286;2023-07-31T10:07:25;25.30;99.90
15143;DHT22;7672;50.834;6.286;2023-07-31T10:10:00;25.40;99.90
15143;DHT22;7672;50.834;6.286;2023-07-31T10:12:32;25.60;99.90
15143;DHT22;7672;50.834;6.286;2023-07-31T10:15:02;25.80;99.90
15143;DHT22;7672;50.834;6.286;2023-07-31T10:17:31;25.90;99.90
15143;DHT22;7672;50.834;6.286;2023-07-31T10:20:00;26.10;99.90
15143;DHT22;7672;50.834;6.286;2023-07-31T10:22:31;26.20;99.90
15143;DHT22;7672;50.834;6.286;2023-07-31T10:25:04;26.30;99.90
15143;DHT22;7672;50.834;6.286;2023-07-31T10:27:35;26.30;99.90
15143;DHT22;7672;50.834;6.286;2023-07-31T10:30:06;26.30;99.90
15143;DHT22;7672;50.834;6.286;2023-07-31T10:32:38;26.20;99.90
15143;DHT22;7672;50.834;6.286;2023-07-31T10:35:08;26.20;99.90
15143;DHT22;7672;50.834;6.286;2023-07-31T10:37:38;26.10;99.90
15143;DHT22;7672;50.834;6.286;2023-07-31T10:40:16;26.10;99.90
15143;DHT22;7672;50.834;6.286;2023-07-31T10:42:53;25.90;99.90
15143;DHT22;7672;50.834;6.286;2023-07-31T10:45:41;25.80;99.90
15143;DHT22;7672;50.834;6.286;2023-07-31T10:48:13;25.70;99.90
15143;DHT22;7672;50.834;6.286;2023-07-31T10:53:28;25.40;99.90
15143;DHT22;7672;50.834;6.286;2023-07-31T10:58:32;25.20;99.90
15143;DHT22;7672;50.834;6.286;2023-07-31T11:01:01;25.00;99.90
15143;DHT22;7672;50.834;6.286;2023-07-31T11:03:49;25.00;99.90
15143;DHT22;7672;50.834;6.286;2023-07-31T11:06:19;25.00;99.90
15143;DHT22;7672;50.834;6.286;2023-07-31T11:08:48;25.00;99.90
15143;DHT22;7672;50.834;6.286;2023-07-31T11:11:19;25.20;99.90
15143;DHT22;7672;50.834;6.286;2023-07-31T11:13:51;25.30;99.90
15143;DHT22;7672;50.834;6.286;2023-07-31T11:16:24;25.50;99.90
15143;DHT22;7672;50.834;6.286;2023-07-31T11:18:53;25.70;99.90
15143;DHT22;7672;50.834;6.286;2023-07-31T11:21:24;25.80;99.90
15143;DHT22;7672;50.834;6.286;2023-07-31T11:23:53;25.90;99.90
15143;DHT22;7672;50.834;6.286;2023-07-31T11:26:25;25.90;99.90
15143;DHT22;7672;50.834;6.286;2023-07-31T11:28:52;26.00;99.90
15143;DHT22;7672;50.834;6.286;2023-07-31T11:31:19;26.10;99.90
15143;DHT22;7672;50.834;6.286;2023-07-31T11:33:46;26.10;99.90
15143;DHT22;7672;50.834;6.286;2023-07-31T11:36:16;26.00;99.90
15143;DHT22;7672;50.834;6.286;2023-07-31T11:38:48;25.90;99.90
15143;DHT22;7672;50.834;6.286;2023-07-31T11:41:16;25.80;99.90
15143;DHT22;7672;50.834;6.286;2023-07-31T11:43:45;25.70;99.90
15143;DHT22;7672;50.834;6.286;2023-07-31T11:46:14;25.60;99.90
15143;DHT22;7672;50.834;6.286;2023-07-31T11:48:42;25.50;99.90
15143;DHT22;7672;50.834;6.286;2023-07-31T11:51:10;25.40;99.90
15143;DHT22;7672;50.834;6.286;2023-07-31T11:53:47;25.30;99.90
15143;DHT22;7672;50.834;6.286;2023-07-31T11:56:19;25.20;99.90
15143;DHT22;7672;50.834;6.286;2023-07-31T11:58:49;25.20;99.90
15143;DHT22;7672;50.834;6.286;2023-07-31T12:01:21;25.00;99.90
15143;DHT22;7672;50.834;6.286;2023-07-31T12:03:50;24.90;99.90
15143;DHT22;7672;50.834;6.286;2023-07-31T12:06:18;24.80;99.90
15143;DHT22;7672;50.834;6.286;2023-07-31T12:08:48;24.70;99.90
15143;DHT22;7672;50.834;6.286;2023-07-31T12:11:16;24.60;99.90
15143;DHT22;7672;50.834;6.286;2023-07-31T12:13:44;24.50;99.90
15143;DHT22;7672;50.834;6.286;2023-07-31T12:16:11;24.30;99.90
15143;DHT22;7672;50.834;6.286;2023-07-31T12:18:39;24.30;99.90
15143;DHT22;7672;50.834;6.286;2023-07-31T12:21:09;24.20;99.90
15143;DHT22;7672;50.834;6.286;2023-07-31T12:23:38;24.10;99.90
15143;DHT22;7672;50.834;6.286;2023-07-31T12:26:14;24.10;99.90
15143;DHT22;7672;50.834;6.286;2023-07-31T12:28:50;24.10;99.90
15143;DHT22;7672;50.834;6.286;2023-07-31T12:31:21;24.10;99.90
15143;DHT22;7672;50.834;6.286;2023-07-31T12:33:50;24.20;99.90
15143;DHT22;7672;50.834;6.286;2023-07-31T12:36:20;24.20;99.90
15143;DHT22;7672;50.834;6.286;2023-07-31T12:38:53;24.20;99.90
15143;DHT22;7672;50.834;6.286;2023-07-31T12:41:22;24.30;99.90
15143;DHT22;7672;50.834;6.286;2023-07-31T12:43:49;24.30;99.90
15143;DHT22;7672;50.834;6.286;2023-07-31T12:46:16;24.40;99.90
15143;DHT22;7672;50.834;6.286;2023-07-31T12:48:44;24.40;99.90
15143;DHT22;7672;50.834;6.286;2023-07-31T12:51:11;24.40;99.90
15143;DHT22;7672;50.834;6.286;2023-07-31T12:53:38;24.40;99.90
15143;DHT22;7672;50.834;6.286;2023-07-31T12:56:05;24.40;99.90
15143;DHT22;7672;50.834;6.286;2023-07-31T12:58:32;24.50;99.90
15143;DHT22;7672;50.834;6.286;2023-07-31T13:00:59;24.50;99.90
15143;DHT22;7672;50.834;6.286;2023-07-31T13:03:27;24.50;99.90
15143;DHT22;7672;50.834;6.286;2023-07-31T13:05:55;24.60;99.90
15143;DHT22;7672;50.834;6.286;2023-07-31T13:08:22;24.60;99.90
15143;DHT22;7672;50.834;6.286;2023-07-31T13:10:49;24.70;99.90
15143;DHT22;7672;50.834;6.286;2023-07-31T13:13:16;24.80;99.90
15143;DHT22;7672;50.834;6.286;2023-07-31T13:15:43;24.90;99.90
15143;DHT22;7672;50.834;6.286;2023-07-31T13:18:11;25.20;99.90
15143;DHT22;7672;50.834;6.286;2023-07-31T13:20:38;25.20;99.90
15143;DHT22;7672;50.834;6.286;2023-07-31T13:23:05;25.30;99.90
15143;DHT22;7672;50.834;6.286;2023-07-31T13:25:32;25.40;99.90
15143;DHT22;7672;50.834;6.286;2023-07-31T13:27:59;25.60;99.90
15143;DHT22;7672;50.834;6.286;2023-07-31T13:30:29;25.80;99.90
15143;DHT22;7672;50.834;6.286;2023-07-31T13:32:56;26.00;99.90
15143;DHT22;7672;50.834;6.286;2023-07-31T13:35:23;26.20;99.90
15143;DHT22;7672;50.834;6.286;2023-07-31T13:37:51;26.40;99.90
15143;DHT22;7672;50.834;6.286;2023-07-31T13:40:18;26.50;99.90
15143;DHT22;7672;50.834;6.286;2023-07-31T13:42:45;26.70;99.90
15143;DHT22;7672;50.834;6.286;2023-07-31T13:45:13;26.80;99.90
15143;DHT22;7672;50.834;6.286;2023-07-31T13:47:41;27.00;99.90
15143;DHT22;7672;50.834;6.286;2023-07-31T13:50:08;27.00;99.90
15143;DHT22;7672;50.834;6.286;2023-07-31T13:52:36;27.00;99.90
15143;DHT22;7672;50.834;6.286;2023-07-31T13:55:03;27.00;99.90
15143;DHT22;7672;50.834;6.286;2023-07-31T13:57:31;27.00;99.90
15143;DHT22;7672;50.834;6.286;2023-07-31T13:59:58;27.00;99.90
15143;DHT22;7672;50.834;6.286;2023-07-31T14:02:25;26.90;99.90
15143;DHT22;7672;50.834;6.286;2023-07-31T14:04:52;26.90;99.90
15143;DHT22;7672;50.834;6.286;2023-07-31T14:07:19;26.80;99.90
15143;DHT22;7672;50.834;6.286;2023-07-31T14:09:46;26.80;99.90
15143;DHT22;7672;50.834;6.286;2023-07-31T14:12:13;26.70;99.90
15143;DHT22;7672;50.834;6.286;2023-07-31T14:14:50;26.70;99.90
15143;DHT22;7672;50.834;6.286;2023-07-31T14:17:17;26.50;99.90
15143;DHT22;7672;50.834;6.286;2023-07-31T14:19:45;26.50;99.90
15143;DHT22;7672;50.834;6.286;2023-07-31T14:22:12;26.40;99.90
15143;DHT22;7672;50.834;6.286;2023-07-31T14:24:39;26.30;99.90
15143;DHT22;7672;50.834;6.286;2023-07-31T14:27:06;26.20;99.90
15143;DHT22;7672;50.834;6.286;2023-07-31T14:29:33;26.10;99.90
15143;DHT22;7672;50.834;6.286;2023-07-31T14:32:00;26.00;99.90
15143;DHT22;7672;50.834;6.286;2023-07-31T14:34:27;25.90;99.90
15143;DHT22;7672;50.834;6.286;2023-07-31T14:36:54;25.80;99.90
15143;DHT22;7672;50.834;6.286;2023-07-31T14:39:21;25.60;99.90
15143;DHT22;7672;50.834;6.286;2023-07-31T14:41:48;25.50;99.90
15143;DHT22;7672;50.834;6.286;2023-07-31T14:44:15;25.50;99.90
15143;DHT22;7672;50.834;6.286;2023-07-31T14:46:42;25.40;99.90
15143;DHT22;7672;50.834;6.286;2023-07-31T14:49:10;25.20;99.90
15143;DHT22;7672;50.834;6.286;2023-07-31T14:51:37;25.20;99.90
15143;DHT22;7672;50.834;6.286;2023-07-31T14:54:04;25.10;99.90
15143;DHT22;7672;50.834;6.286;2023-07-31T14:56:31;25.00;99.90
15143;DHT22;7672;50.834;6.286;2023-07-31T14:58:58;24.90;99.90
15143;DHT22;7672;50.834;6.286;2023-07-31T15:01:26;24.90;99.90
15143;DHT22;7672;50.834;6.286;2023-07-31T15:03:53;24.80;99.90
15143;DHT22;7672;50.834;6.286;2023-07-31T15:06:20;24.70;99.90
15143;DHT22;7672;50.834;6.286;2023-07-31T15:08:47;24.60;99.90
15143;DHT22;7672;50.834;6.286;2023-07-31T15:11:14;24.50;99.90
15143;DHT22;7672;50.834;6.286;2023-07-31T15:13:43;24.50;99.90
15143;DHT22;7672;50.834;6.286;2023-07-31T15:16:10;24.40;99.90
15143;DHT22;7672;50.834;6.286;2023-07-31T15:18:38;24.30;99.90
15143;DHT22;7672;50.834;6.286;2023-07-31T15:21:05;24.20;99.90
15143;DHT22;7672;50.834;6.286;2023-07-31T15:23:34;24.00;99.90
15143;DHT22;7672;50.834;6.286;2023-07-31T15:26:01;23.90;99.90
15143;DHT22;7672;50.834;6.286;2023-07-31T15:28:28;23.90;99.90
15143;DHT22;7672;50.834;6.286;2023-07-31T15:30:56;23.70;99.90
15143;DHT22;7672;50.834;6.286;2023-07-31T15:33:23;23.60;99.90
15143;DHT22;7672;50.834;6.286;2023-07-31T15:35:50;23.50;99.90
15143;DHT22;7672;50.834;6.286;2023-07-31T15:38:17;23.30;99.90
15143;DHT22;7672;50.834;6.286;2023-07-31T15:40:44;23.30;99.90
15143;DHT22;7672;50.834;6.286;2023-07-31T15:43:11;23.10;99.90
15143;DHT22;7672;50.834;6.286;2023-07-31T15:45:38;23.00;99.90
15143;DHT22;7672;50.834;6.286;2023-07-31T15:48:05;23.00;99.90
15143;DHT22;7672;50.834;6.286;2023-07-31T15:50:33;22.80;99.90
15143;DHT22;7672;50.834;6.286;2023-07-31T15:53:00;22.70;99.90
15143;DHT22;7672;50.834;6.286;2023-07-31T15:55:27;22.60;99.90
15143;DHT22;7672;50.834;6.286;2023-07-31T15:57:54;22.50;99.90
15143;DHT22;7672;50.834;6.286;2023-07-31T16:00:21;22.60;99.90
15143;DHT22;7672;50.834;6.286;2023-07-31T16:02:49;22.30;99.90
15143;DHT22;7672;50.834;6.286;2023-07-31T16:05:16;22.20;99.90
15143;DHT22;7672;50.834;6.286;2023-07-31T16:07:43;22.10;99.90
15143;DHT22;7672;50.834;6.286;2023-07-31T16:10:10;22.00;99.90
15143;DHT22;7672;50.834;6.286;2023-07-31T16:12:37;21.90;99.90